Search for airport 
image banner adimage banner adimage banner ad
image banner ad

CA46 - Cedars-Sinai Medical Center

Located in Los Angeles, United States

ICAO - CA46, IATA -

Data provided by Airmate  

General information

Coordinates: N34°4'35" W118°22'53"
Elevation is 334 feet MSL.
Magnetic variation is 14° East
View others Airports in California

Operational data

Special qualification required
Current time UTC:
Current local time:
Weather at : KSMO - Santa Monica Muni ( 9 km )
METAR: KSMO 292051Z 22008KT 10SM CLR 22/16 A2990 RMK AO2 SLP123 T02220156 58013
TAF: KSMO 291736Z 2918/3018 21006KT P6SM SCT005 FM292000 23008KT P6SM SKC FM300400 VRB03KT P6SM SKC FM300900 VRB03KT P6SM OVC008
View NOTAMs / SUP AIP / TFR affecting this airport [VIEW]
Communications frequencies: [VIEW]

Runways:

Airport contact information

Address: Los Angeles United States

Satellite view of CA46